createdAt,value
2023-01-07T00:01:44.957Z,10.40
2023-01-07T00:20:45.302Z,10.00
2023-01-07T00:26:11.416Z,9.90
2023-01-07T00:28:41.752Z,10.00
2023-01-07T00:31:38.922Z,10.20
2023-01-07T00:36:47.251Z,10.30
2023-01-07T00:45:06.494Z,10.50
2023-01-07T00:47:33.581Z,10.50
2023-01-07T00:50:00.775Z,10.50
2023-01-07T00:52:29.640Z,10.40
2023-01-07T00:55:00.351Z,10.40
2023-01-07T01:08:28.646Z,10.00
2023-01-07T01:10:55.453Z,9.90
2023-01-07T01:13:22.747Z,9.80
2023-01-07T01:18:31.529Z,9.70
2023-01-07T01:21:04.553Z,9.60
2023-01-07T01:23:32.664Z,9.50
2023-01-07T01:26:14.830Z,9.50
2023-01-07T01:28:43.094Z,9.40
2023-01-07T01:31:10.324Z,9.40
2023-01-07T01:33:39.002Z,9.50
2023-01-07T01:36:23.017Z,9.60
2023-01-07T01:38:53.418Z,9.60
2023-01-07T01:41:21.567Z,9.70
2023-01-07T01:49:27.882Z,9.70
2023-01-07T01:54:30.170Z,9.60
2023-01-07T01:57:00.197Z,9.60
2023-01-07T01:59:30.327Z,9.60
2023-01-07T02:01:58.338Z,9.60
2023-01-07T02:04:26.945Z,9.60
2023-01-07T02:09:40.541Z,9.50
2023-01-07T02:15:29.939Z,9.60
2023-01-07T02:41:30.603Z,9.80
2023-01-07T02:44:24.336Z,9.80
2023-01-07T02:46:54.853Z,9.90
2023-01-07T02:57:57.707Z,10.10
2023-01-07T03:00:32.886Z,10.10
2023-01-07T03:28:59.746Z,10.00
2023-01-07T03:31:27.408Z,9.90
2023-01-07T03:34:10.665Z,10.00
2023-01-07T03:36:40.565Z,10.10
2023-01-07T03:39:08.697Z,10.10
2023-01-07T03:44:27.357Z,10.10
2023-01-07T03:46:55.014Z,10.10
2023-01-07T03:49:21.905Z,10.00
2023-01-07T03:51:49.471Z,10.00
2023-01-07T03:54:16.512Z,10.00
2023-01-07T04:02:16.659Z,10.00
2023-01-07T04:04:43.582Z,10.00
2023-01-07T04:07:10.792Z,10.00
2023-01-07T04:09:37.619Z,10.00
2023-01-07T04:12:05.252Z,10.00
2023-01-07T04:17:18.124Z,10.00
2023-01-07T04:19:46.153Z,10.10
2023-01-07T04:22:13.617Z,10.10
2023-01-07T04:24:40.640Z,10.10
2023-01-07T04:27:08.512Z,10.10
2023-01-07T04:37:39.600Z,10.00
2023-01-07T04:40:08.013Z,10.00
2023-01-07T04:42:34.990Z,10.00
2023-01-07T04:50:13.231Z,9.90
2023-01-07T04:52:39.977Z,9.90
2023-01-07T04:55:08.198Z,9.90
2023-01-07T04:57:35.146Z,9.90
2023-01-07T05:00:02.868Z,9.90
2023-01-07T05:13:30.544Z,10.00
2023-01-07T05:15:58.485Z,10.00
2023-01-07T05:21:07.319Z,9.90
2023-01-07T05:23:42.307Z,9.90
2023-01-07T05:26:10.168Z,9.90
2023-01-07T05:28:37.354Z,9.90
2023-01-07T05:31:04.473Z,9.90
2023-01-07T05:33:31.283Z,9.90
2023-01-07T05:35:58.362Z,9.90
2023-01-07T05:46:26.863Z,9.90
2023-01-07T05:48:54.779Z,9.90
2023-01-07T05:51:21.975Z,9.90
2023-01-07T05:53:51.128Z,9.90
2023-01-07T05:58:56.516Z,9.90
2023-01-07T06:01:24.842Z,9.90
2023-01-07T06:03:52.854Z,9.80
2023-01-07T06:06:19.928Z,9.80
2023-01-07T06:08:54.201Z,9.80
2023-01-07T06:13:57.060Z,9.90
2023-01-07T06:16:28.046Z,9.80
2023-01-07T06:18:58.311Z,9.80
2023-01-07T06:21:25.592Z,9.80
2023-01-07T06:23:54.089Z,9.80
2023-01-07T06:31:49.896Z,9.80
2023-01-07T06:34:16.705Z,9.80
2023-01-07T06:36:43.745Z,9.80
2023-01-07T06:39:12.237Z,9.80
2023-01-07T06:41:39.766Z,9.80
2023-01-07T06:46:45.740Z,9.80
2023-01-07T06:49:14.526Z,9.90
2023-01-07T06:51:41.445Z,9.90
2023-01-07T06:54:08.253Z,9.90
2023-01-07T06:56:35.021Z,9.90
2023-01-07T07:01:46.305Z,9.90
2023-01-07T07:04:13.583Z,9.80
2023-01-07T07:06:40.756Z,9.80
2023-01-07T07:09:14.931Z,9.90
2023-01-07T07:11:41.749Z,9.80
2023-01-07T07:14:21.144Z,9.80
2023-01-07T07:22:13.960Z,9.80
2023-01-07T07:24:40.992Z,9.80
2023-01-07T07:27:07.904Z,9.80
2023-01-07T07:37:41.331Z,9.80
2023-01-07T07:40:10.300Z,9.80
2023-01-07T07:43:10.249Z,9.80
2023-01-07T07:50:51.980Z,9.70
2023-01-07T07:58:37.001Z,9.80
2023-01-07T08:01:06.099Z,9.80
2023-01-07T08:06:17.512Z,9.80
2023-01-07T08:08:44.667Z,9.80
2023-01-07T08:11:15.121Z,9.80
2023-01-07T08:24:48.159Z,9.90
2023-01-07T08:27:15.186Z,9.90
2023-01-07T08:29:42.197Z,9.90
2023-01-07T08:32:12.883Z,9.90
2023-01-07T08:37:22.206Z,10.00
2023-01-07T08:39:55.731Z,10.00
2023-01-07T08:42:22.870Z,10.00
2023-01-07T08:44:51.536Z,10.00
2023-01-07T08:47:19.448Z,10.00
2023-01-07T08:55:16.720Z,10.00
2023-01-07T08:57:44.731Z,10.00
2023-01-07T09:00:12.504Z,10.10
2023-01-07T09:02:40.223Z,10.10
2023-01-07T09:05:07.475Z,10.10
2023-01-07T09:13:04.536Z,10.20
2023-01-07T09:15:31.537Z,10.20
2023-01-07T09:17:58.338Z,10.20
2023-01-07T09:23:06.180Z,10.30
2023-01-07T09:28:22.854Z,10.30
2023-01-07T09:30:49.489Z,10.80
2023-01-07T09:33:16.193Z,11.00
2023-01-07T09:35:42.832Z,11.30
2023-01-07T09:38:09.426Z,11.30
2023-01-07T09:40:38.297Z,11.30
2023-01-07T09:43:14.187Z,11.30
2023-01-07T09:45:47.328Z,11.50
2023-01-07T09:48:33.424Z,11.70
2023-01-07T09:51:07.243Z,11.80
2023-01-07T09:53:43.266Z,11.30
2023-01-07T09:56:27.063Z,11.10
2023-01-07T09:58:54.276Z,10.90
2023-01-07T10:01:37.175Z,10.90
2023-01-07T10:04:17.430Z,10.90
2023-01-07T10:07:10.286Z,10.90
2023-01-07T10:09:55.142Z,11.00
2023-01-07T10:12:32.444Z,11.30
2023-01-07T10:15:14.055Z,11.50
2023-01-07T10:18:06.078Z,11.80
2023-01-07T10:20:42.565Z,11.80
2023-01-07T10:23:26.039Z,11.30
2023-01-07T10:25:54.734Z,11.40
2023-01-07T10:28:42.080Z,11.40
2023-01-07T10:31:18.046Z,11.90
2023-01-07T10:33:47.086Z,11.80
2023-01-07T10:36:38.238Z,11.80
2023-01-07T10:39:29.813Z,12.00
2023-01-07T10:42:19.258Z,11.70
2023-01-07T10:45:10.230Z,11.40
2023-01-07T10:47:52.328Z,11.30
2023-01-07T10:50:31.152Z,11.20
2023-01-07T10:52:57.754Z,11.20
2023-01-07T10:55:33.260Z,11.20
2023-01-07T10:58:00.179Z,11.20
2023-01-07T11:00:27.100Z,11.10
2023-01-07T11:02:59.526Z,11.10
2023-01-07T11:05:32.995Z,11.00
2023-01-07T11:08:04.281Z,11.10
2023-01-07T11:10:34.788Z,11.10
2023-01-07T11:13:18.680Z,11.10
2023-01-07T11:15:49.081Z,11.10
2023-01-07T11:18:43.643Z,11.10
2023-01-07T11:21:43.384Z,11.10
2023-01-07T11:23:57.184Z,11.20
2023-01-07T11:26:27.174Z,11.20
2023-01-07T11:28:55.995Z,11.10
2023-01-07T11:34:03.141Z,11.10
2023-01-07T11:42:32.779Z,11.20
2023-01-07T11:45:20.961Z,11.20
2023-01-07T11:47:52.253Z,11.20
2023-01-07T11:50:42.205Z,11.20
2023-01-07T11:53:17.906Z,11.30
2023-01-07T11:55:57.873Z,11.40
2023-01-07T11:58:33.576Z,11.40
2023-01-07T12:03:37.181Z,11.50
2023-01-07T12:06:09.133Z,11.50
2023-01-07T12:08:36.056Z,11.50
2023-01-07T12:11:14.373Z,11.60
2023-01-07T12:13:42.974Z,11.60
2023-01-07T12:30:07.964Z,11.70
2023-01-07T12:32:52.367Z,11.70
2023-01-07T12:35:25.526Z,11.70
2023-01-07T12:38:00.612Z,11.70
2023-01-07T12:40:40.761Z,11.70
2023-01-07T12:43:21.642Z,11.60
2023-01-07T12:51:19.001Z,11.60
2023-01-07T12:54:09.934Z,11.60
2023-01-07T12:57:00.187Z,11.60
2023-01-07T12:59:48.356Z,11.60
2023-01-07T13:02:21.241Z,11.70
2023-01-07T13:05:18.449Z,11.70
2023-01-07T13:08:21.797Z,11.80
2023-01-07T13:10:53.530Z,11.70
2023-01-07T13:13:45.321Z,11.70
2023-01-07T13:16:12.447Z,11.80
2023-01-07T13:21:22.710Z,11.80
2023-01-07T13:24:22.307Z,11.70
2023-01-07T20:01:56.089Z,11.70
2023-01-07T20:04:22.943Z,11.60
2023-01-07T20:06:50.547Z,11.60
2023-01-07T20:09:18.577Z,11.60
2023-01-07T20:11:45.527Z,11.50
2023-01-07T20:19:37.455Z,11.50
2023-01-07T20:22:04.168Z,11.50
2023-01-07T20:24:32.781Z,11.50
2023-01-07T20:26:59.517Z,11.50
2023-01-07T20:29:26.301Z,11.50
2023-01-07T20:31:52.951Z,11.50
2023-01-07T20:34:19.669Z,11.50
2023-01-07T20:36:47.873Z,11.50
2023-01-07T20:39:14.611Z,11.50
2023-01-07T20:41:41.602Z,11.50
2023-01-07T20:49:39.772Z,11.40
2023-01-07T20:52:06.444Z,11.40
2023-01-07T20:54:33.121Z,11.40
2023-01-07T20:56:59.701Z,11.50
2023-01-07T20:59:26.408Z,11.40
2023-01-07T21:01:53.277Z,11.40
2023-01-07T21:04:20.135Z,11.40
2023-01-07T21:06:46.715Z,11.40
2023-01-07T21:09:13.488Z,11.40
2023-01-07T21:11:40.698Z,11.30
2023-01-07T21:14:14.363Z,11.40
2023-01-07T21:16:41.058Z,11.40
2023-01-07T21:19:07.892Z,11.30
2023-01-07T21:21:34.591Z,11.30
2023-01-07T21:24:01.597Z,11.30
2023-01-07T21:26:28.292Z,11.30
2023-01-07T21:34:22.367Z,11.30
2023-01-07T21:36:49.065Z,11.40
2023-01-07T21:39:15.752Z,11.40
2023-01-07T21:41:42.369Z,11.30
2023-01-07T21:44:11.864Z,11.30
2023-01-07T21:46:38.507Z,11.30
2023-01-07T21:49:06.004Z,11.30
2023-01-07T21:51:32.681Z,11.40
2023-01-07T21:53:59.690Z,11.30
2023-01-07T21:56:31.312Z,11.30
2023-01-07T21:59:04.337Z,11.30
2023-01-07T22:01:31.063Z,11.30
2023-01-07T22:03:59.847Z,11.30
2023-01-07T22:06:32.668Z,11.30
2023-01-07T22:09:07.586Z,11.30
2023-01-07T22:11:35.655Z,11.30
2023-01-07T22:16:30.976Z,11.20
2023-01-07T22:18:58.184Z,11.30
2023-01-07T22:21:25.192Z,11.30
2023-01-07T22:23:52.160Z,11.30
2023-01-07T22:26:20.288Z,11.20
2023-01-07T22:34:16.378Z,11.10
2023-01-07T22:36:51.933Z,11.10
2023-01-07T22:39:44.576Z,11.10
2023-01-07T22:42:28.388Z,11.10
2023-01-07T22:44:59.557Z,11.10
2023-01-07T22:47:30.748Z,11.10
2023-01-07T22:49:59.131Z,11.10
2023-01-07T22:52:26.801Z,11.10
2023-01-07T22:54:53.550Z,11.10
2023-01-07T22:57:21.132Z,11.10
2023-01-07T22:59:47.865Z,11.00
2023-01-07T23:02:14.566Z,11.00
2023-01-07T23:04:47.251Z,10.90
2023-01-07T23:07:13.963Z,10.90
2023-01-07T23:09:41.663Z,11.00
2023-01-07T23:12:11.014Z,11.00
2023-01-07T23:14:37.734Z,11.00
2023-01-07T23:17:04.323Z,10.90
2023-01-07T23:22:17.865Z,10.90
2023-01-07T23:24:44.619Z,11.00
2023-01-07T23:27:12.773Z,11.00
2023-01-07T23:29:40.791Z,11.00
2023-01-07T23:32:12.313Z,11.00
2023-01-07T23:40:13.204Z,11.10
2023-01-07T23:42:39.880Z,11.00
2023-01-07T23:45:07.250Z,11.10
2023-01-07T23:47:34.127Z,11.10
2023-01-07T23:50:00.801Z,11.10
2023-01-07T23:55:12.744Z,11.00
2023-01-07T23:57:39.369Z,11.00
